Time;durP1;ratioP1;P1;durP2;ratioP2;P2;SDS_P1;SDS_P2;PMS_P1;PMS_P2;Temp;Humidity;BMP_temperature;BMP_pressure;BME280_temperature;BME280_humidity;BME280_pressure;Samples;Min_cycle;Max_cycle;Signal;HPM_P1;HPM_P2
2023/12/10 00:01:20;;;;;;;0.30;0.30;;;;;;;7.86;90.23;74603.19;6174870;23;20008;-87
2023/12/10 00:03:46;;;;;;;0.20;0.20;;;;;;;7.91;88.83;74613.47;6177048;23;20088;-86
2023/12/10 00:06:27;;;;;;;;;;;;;;;;;;;;;
2023/12/10 00:08:58;;;;;;;0.30;0.30;;;;;;;8.14;88.31;74638.72;6173771;23;20002;-87
2023/12/10 00:11:30;;;;;;;0.20;0.20;;;;;;;8.18;87.69;74640.16;6149709;23;20009;-87
2023/12/10 00:13:56;;;;;;;0.28;0.28;;;;;;;8.06;88.33;74623.09;6149904;23;20028;-87
2023/12/10 00:16:24;;;;;;;0.30;0.30;;;;;;;8.04;86.86;74626.19;6150744;23;20053;-85
2023/12/10 00:18:52;;;;;;;0.30;0.30;;;;;;;8.25;87.08;74654.00;6177122;23;20029;-87
2023/12/10 00:21:19;;;;;;;0.28;0.28;;;;;;;8.03;86.57;74622.84;6152525;23;20006;-87
2023/12/10 00:23:50;;;;;;;0.20;0.20;;;;;;;8.34;85.64;74664.16;6152719;23;20010;-86
2023/12/10 00:26:19;;;;;;;0.30;0.30;;;;;;;8.16;85.84;74640.53;6175665;23;20074;-87
2023/12/10 00:31:32;;;;;;;0.20;0.20;;;;;;;8.64;86.20;74693.84;6203944;23;20081;-87
2023/12/10 00:33:59;;;;;;;0.30;0.30;;;;;;;8.14;86.87;74635.38;6175488;23;19997;-85
2023/12/10 00:36:25;;;;;;;0.20;0.20;;;;;;;8.78;87.41;74713.31;6205724;23;20012;-86
2023/12/10 00:38:57;;;;;;;0.20;0.20;;;;;;;8.76;88.32;74708.16;6177987;23;20072;-87
2023/12/10 00:41:27;;;;;;;0.30;0.30;;;;;;;8.84;88.79;74722.63;6205976;23;19989;-86
2023/12/10 00:43:53;;;;;;;0.20;0.20;;;;;;;8.25;89.25;74651.25;6204913;23;20005;-86
2023/12/10 00:46:19;;;;;;;0.30;0.30;;;;;;;8.87;84.10;74720.69;6205773;23;20009;-87
2023/12/10 00:48:45;;;;;;;0.30;0.30;;;;;;;8.92;80.78;74727.25;6180408;23;20020;-86
2023/12/10 00:51:22;;;;;;;0.20;0.20;;;;;;;8.93;81.57;74730.59;6202362;23;20005;-87
2023/12/10 00:53:52;;;;;;;0.20;0.20;;;;;;;8.58;83.31;74689.47;6204428;23;20020;-88
2023/12/10 00:56:21;;;;;;;0.30;0.30;;;;;;;8.93;83.50;74728.44;6205894;23;20127;-86
2023/12/10 00:58:48;;;;;;;0.30;0.30;;;;;;;8.54;85.70;74681.94;6204314;23;20005;-87
2023/12/10 01:01:15;;;;;;;0.20;0.20;;;;;;;8.64;85.65;74699.38;6201431;23;20012;-87
2023/12/10 01:03:41;;;;;;;0.30;0.30;;;;;;;8.92;87.65;74726.66;6148333;23;20009;-86
2023/12/10 01:06:16;;;;;;;0.30;0.30;;;;;;;8.37;88.65;74665.59;6173888;23;20005;-87
2023/12/10 01:08:43;;;;;;;0.22;0.22;;;;;;;8.40;89.93;74665.81;6175665;23;20001;-87
2023/12/10 01:11:10;;;;;;;0.20;0.20;;;;;;;8.76;91.08;74713.69;6178632;23;20017;-87
2023/12/10 01:13:36;;;;;;;0.30;0.30;;;;;;;8.98;90.40;74733.22;6157206;23;20012;-88
2023/12/10 01:16:05;;;;;;;0.30;0.30;;;;;;;8.58;89.30;74695.56;6182648;23;20013;-86
2023/12/10 01:18:37;;;;;;;0.20;0.20;;;;;;;8.98;89.58;74733.81;6208723;23;20028;-87
2023/12/10 01:21:04;;;;;;;0.20;0.20;;;;;;;8.97;90.77;74732.03;6207556;23;20005;-87
2023/12/10 01:23:32;;;;;;;0.20;0.20;;;;;;;8.37;92.87;74656.75;6207901;23;20016;-86
2023/12/10 01:26:00;;;;;;;0.20;0.20;;;;;;;8.56;93.22;74687.66;6182126;23;20012;-87
2023/12/10 01:28:26;;;;;;;0.20;0.20;;;;;;;9.01;93.88;74736.81;6207295;23;20012;-87
2023/12/10 01:30:54;;;;;;;0.28;0.28;;;;;;;8.54;94.61;74685.28;6206968;23;20013;-86
2023/12/10 01:33:24;;;;;;;0.20;0.20;;;;;;;8.20;94.08;74642.53;6206666;23;20046;-87
2023/12/10 01:35:49;;;;;;;0.20;0.20;;;;;;;8.91;93.06;74731.59;6182100;23;20016;-87
2023/12/10 01:38:15;;;;;;;0.20;0.20;;;;;;;8.58;93.65;74687.28;6180918;23;20045;-86
2023/12/10 01:40:41;;;;;;;0.20;0.20;;;;;;;8.47;90.39;74676.31;6175126;23;20005;-87
2023/12/10 01:43:09;;;;;;;0.20;0.20;;;;;;;8.69;90.78;74699.81;6174855;23;20016;-86
2023/12/10 01:45:39;;;;;;;0.20;0.20;;;;;;;8.72;91.51;74703.38;6201666;23;20169;-86
2023/12/10 01:48:20;;;;;;;0.30;0.30;;;;;;;8.24;92.13;74647.31;6183042;23;20064;-87
2023/12/10 01:50:46;;;;;;;0.20;0.20;;;;;;;8.65;94.50;74700.56;6183576;23;19989;-87
2023/12/10 01:53:16;;;;;;;0.30;0.30;;;;;;;8.79;94.79;74711.75;6184219;23;20013;-87
2023/12/10 01:55:42;;;;;;;0.30;0.30;;;;;;;8.37;96.97;74667.75;6208160;23;19993;-87
2023/12/10 01:58:09;;;;;;;0.30;0.30;;;;;;;8.53;99.94;74684.09;6208599;23;20444;-86
2023/12/10 02:00:38;;;;;;;0.30;0.30;;;;;;;8.76;99.60;74705.41;6177825;23;20013;-88
2023/12/10 02:03:05;;;;;;;0.20;0.20;;;;;;;8.38;100.00;74658.53;6180396;23;20009;-88
2023/12/10 02:05:31;;;;;;;0.20;0.20;;;;;;;8.34;100.00;74661.97;6180930;23;20020;-87
2023/12/10 02:07:57;;;;;;;0.30;0.30;;;;;;;7.94;100.00;74612.13;6180606;23;20039;-87
2023/12/10 02:10:24;;;;;;;0.20;0.20;;;;;;;8.35;100.00;74660.41;6181033;23;19997;-87
2023/12/10 02:12:55;;;;;;;0.30;0.30;;;;;;;7.94;100.00;74612.13;6205377;23;20009;-87
2023/12/10 02:15:31;;;;;;;0.30;0.30;;;;;;;8.41;100.00;74672.50;6205041;23;20009;-87
2023/12/10 02:17:57;;;;;;;0.20;0.20;;;;;;;7.85;100.00;74604.75;6203639;23;20039;-86
2023/12/10 02:20:27;;;;;;;0.20;0.20;;;;;;;8.45;100.00;74673.94;6205657;23;20005;-87
2023/12/10 02:23:06;;;;;;;0.30;0.30;;;;;;;8.35;100.00;74660.41;6179955;23;20369;-87
2023/12/10 02:25:34;;;;;;;0.30;0.30;;;;;;;7.93;100.00;74615.84;6206997;23;20076;-86
2023/12/10 02:28:01;;;;;;;0.30;0.30;;;;;;;7.67;100.00;74583.28;6209734;23;20021;-87
2023/12/10 02:30:27;;;;;;;0.30;0.30;;;;;;;8.30;100.00;74656.63;6207055;23;20009;-87
2023/12/10 02:32:54;;;;;;;0.20;0.20;;;;;;;7.92;100.00;74614.66;6205393;23;20005;-87
2023/12/10 02:35:19;;;;;;;0.22;0.22;;;;;;;7.75;100.00;74590.06;6178748;23;20009;-87
2023/12/10 02:37:45;;;;;;;0.20;0.20;;;;;;;8.08;100.00;74630.97;6203065;23;20005;-86
2023/12/10 02:40:11;;;;;;;0.30;0.30;;;;;;;7.60;100.00;74577.69;6177452;23;20005;-87
2023/12/10 02:42:37;;;;;;;0.20;0.20;;;;;;;7.59;100.00;74571.00;6178901;23;20012;-86
2023/12/10 02:45:05;;;;;;;0.20;0.20;;;;;;;7.41;100.00;74555.03;6204689;23;20005;-87
2023/12/10 02:47:32;;;;;;;0.20;0.20;;;;;;;7.75;100.00;74589.47;6207181;23;20441;-86
2023/12/10 02:49:58;;;;;;;0.20;0.20;;;;;;;7.40;100.00;74554.44;6185038;23;20008;-86
2023/12/10 02:52:23;;;;;;;0.30;0.30;;;;;;;7.21;100.00;74529.03;6212408;23;20044;-86
2023/12/10 02:54:49;;;;;;;0.30;0.30;;;;;;;7.64;100.00;74582.47;6214133;23;19996;-85
2023/12/10 02:57:15;;;;;;;0.30;0.30;;;;;;;7.59;100.00;74571.59;6214330;23;20001;-85
2023/12/10 02:59:42;;;;;;;0.25;0.25;;;;;;;7.19;100.00;74527.25;6213763;23;19993;-85
2023/12/10 03:02:07;;;;;;;0.30;0.30;;;;;;;7.02;100.00;74504.84;6213109;23;20012;-85
2023/12/10 03:04:33;;;;;;;0.30;0.30;;;;;;;7.39;100.00;74552.66;6211667;23;20009;-87
2023/12/10 03:07:02;;;;;;;0.30;0.30;;;;;;;7.03;100.00;74508.78;6187058;23;19997;-86
2023/12/10 03:09:27;;;;;;;0.30;0.30;;;;;;;7.70;100.00;74583.50;6187875;23;20012;-85
2023/12/10 03:11:53;;;;;;;0.30;0.30;;;;;;;7.35;100.00;74546.34;6211202;23;20056;-86
2023/12/10 03:14:19;;;;;;;0.30;0.30;;;;;;;7.73;100.00;74587.69;6210056;23;20009;-88
2023/12/10 03:16:47;;;;;;;0.30;0.30;;;;;;;7.51;100.00;74561.44;6183318;23;19989;-87
2023/12/10 03:19:13;;;;;;;0.30;0.30;;;;;;;7.61;100.00;74567.88;6187064;23;20041;-87
2023/12/10 03:22:17;;;;;;;0.30;0.30;;;;;;;8.10;100.00;74631.22;6186746;23;20060;-88
2023/12/10 03:24:43;;;;;;;;;;;;;;;8.13;100.00;74634.78;6209477;23;20005;-87
2023/12/10 03:27:12;;;;;;;0.30;0.30;;;;;;;7.99;100.00;74617.47;6186275;23;19942;-87
2023/12/10 03:29:40;;;;;;;0.22;0.22;;;;;;;7.70;100.00;74584.09;6187607;23;20001;-88
2023/12/10 03:32:07;;;;;;;0.30;0.30;;;;;;;7.92;100.00;74620.75;6212989;23;20001;-87
2023/12/10 03:34:34;;;;;;;0.30;0.30;;;;;;;7.96;100.00;74613.91;6187480;23;20056;-89
2023/12/10 03:37:00;;;;;;;0.20;0.20;;;;;;;8.22;100.00;74644.91;6187431;23;20063;-88
2023/12/10 03:39:26;;;;;;;0.20;0.20;;;;;;;7.74;100.00;74591.63;6187352;23;19993;-88
2023/12/10 03:41:55;;;;;;;0.20;0.20;;;;;;;7.96;100.00;74616.66;6163389;23;19989;-86
2023/12/10 03:44:22;;;;;;;0.20;0.20;;;;;;;7.77;100.00;74592.44;6211193;23;19997;-87
2023/12/10 03:46:47;;;;;;;0.30;0.30;;;;;;;7.80;100.00;74598.78;6212276;23;20048;-89
2023/12/10 03:49:13;;;;;;;0.30;0.30;;;;;;;8.36;100.00;74661.03;6211560;23;19989;-87
2023/12/10 03:51:40;;;;;;;0.30;0.30;;;;;;;7.81;100.00;74602.72;6162518;23;20013;-87
2023/12/10 03:54:15;;;;;;;0.20;0.20;;;;;;;7.88;100.00;74605.56;6212554;23;20005;-87
2023/12/10 03:56:43;;;;;;;0.30;0.30;;;;;;;7.98;100.00;74619.63;6203289;23;20025;-89
2023/12/10 03:59:09;;;;;;;0.30;0.30;;;;;;;8.37;100.00;74662.25;6185279;23;20009;-87
2023/12/10 04:01:35;;;;;;;0.20;0.20;;;;;;;8.36;100.00;74667.16;6209067;23;20001;-86
2023/12/10 04:04:11;;;;;;;0.28;0.28;;;;;;;8.29;100.00;74652.66;6126839;23;20045;-87
2023/12/10 04:06:42;;;;;;;0.20;0.20;;;;;;;7.82;100.00;74601.16;6183595;23;20012;-86
2023/12/10 04:09:16;;;;;;;0.30;0.30;;;;;;;7.90;100.00;74609.50;6211448;23;19992;-87
2023/12/10 04:11:42;;;;;;;0.20;0.20;;;;;;;8.39;100.00;74659.13;6211810;23;20036;-87
2023/12/10 04:14:10;;;;;;;0.30;0.30;;;;;;;8.14;100.00;74638.72;6211510;23;20016;-88
2023/12/10 04:16:39;;;;;;;0.30;0.30;;;;;;;8.07;100.00;74627.63;6187145;23;20029;-87
2023/12/10 04:19:15;;;;;;;0.28;0.28;;;;;;;8.18;100.00;74634.63;6212104;23;19989;-88
2023/12/10 04:21:41;;;;;;;0.30;0.30;;;;;;;8.03;100.00;74627.75;6210741;23;20009;-87
2023/12/10 04:24:07;;;;;;;0.30;0.30;;;;;;;8.43;100.00;74677.06;6211451;23;20089;-85
2023/12/10 04:26:35;;;;;;;0.30;0.30;;;;;;;8.36;100.00;74664.41;6210813;23;20004;-87
2023/12/10 04:29:01;;;;;;;0.28;0.28;;;;;;;7.91;100.00;74610.72;6211539;23;20005;-88
2023/12/10 04:36:53;;;;;;;0.30;0.30;;;;;;;7.82;100.00;74603.91;6194330;22;20024;-87
2023/12/10 04:39:19;;;;;;;0.30;0.30;;;;;;;7.90;100.00;74609.50;6243013;23;20005;-88
2023/12/10 04:41:45;;;;;;;0.28;0.28;;;;;;;8.27;100.00;74650.88;6216664;23;20031;-88
2023/12/10 04:44:15;;;;;;;0.20;0.20;;;;;;;8.31;100.00;74655.03;6213813;23;19988;-88
2023/12/10 04:46:43;;;;;;;0.20;0.20;;;;;;;7.79;100.00;74600.34;6214875;23;19993;-86
2023/12/10 04:49:09;;;;;;;0.20;0.20;;;;;;;7.92;100.00;74614.66;6218073;23;20004;-87
2023/12/10 04:51:35;;;;;;;0.30;0.30;;;;;;;7.70;100.00;74584.09;6218239;23;20004;-89
2023/12/10 04:54:01;;;;;;;0.30;0.30;;;;;;;8.16;100.00;74637.78;6244046;23;20015;-88
2023/12/10 04:56:27;;;;;;;0.30;0.30;;;;;;;7.75;100.00;74594.97;6218009;23;19988;-86
2023/12/10 04:58:53;;;;;;;0.20;0.20;;;;;;;7.87;100.00;74607.13;6243395;23;20016;-88
2023/12/10 05:01:22;;;;;;;0.30;0.30;;;;;;;8.00;100.00;74624.19;6216149;23;20000;-88
2023/12/10 05:03:47;;;;;;;0.20;0.20;;;;;;;8.29;100.00;74656.03;6217856;23;20039;-88
2023/12/10 05:06:18;;;;;;;0.20;0.20;;;;;;;8.30;100.00;74659.97;6244488;23;20013;-88
2023/12/10 05:08:43;;;;;;;0.30;0.30;;;;;;;7.96;100.00;74622.19;6218337;23;20032;-88
2023/12/10 05:11:21;;;;;;;0.20;0.20;;;;;;;8.33;100.00;74662.97;6191363;23;20012;-89
2023/12/10 05:13:50;;;;;;;0.30;0.30;;;;;;;8.06;100.00;74625.84;6241242;23;20011;-89
2023/12/10 05:16:19;;;;;;;0.20;0.20;;;;;;;7.89;100.00;74611.69;6192739;23;20091;-88
2023/12/10 05:18:44;;;;;;;0.30;0.30;;;;;;;7.92;100.00;74615.25;6217101;23;20004;-89
2023/12/10 05:21:10;;;;;;;0.30;0.30;;;;;;;8.53;100.00;74689.00;6242996;23;19997;-90
2023/12/10 05:23:37;;;;;;;0.30;0.30;;;;;;;8.28;100.00;74654.81;6218591;23;20027;-88
2023/12/10 05:59:51;;;;;;;0.20;0.20;;;;;;;8.99;100.00;74737.16;6209365;23;20069;-86
2023/12/10 06:04:52;;;;;;;0.20;0.20;;;;;;;9.22;100.00;74759.13;6213233;22;20008;-89
2023/12/10 06:07:18;;;;;;;0.20;0.20;;;;;;;8.63;100.00;74695.44;6248250;23;20006;-89
2023/12/10 06:09:44;;;;;;;0.20;0.20;;;;;;;8.70;100.00;74700.41;6273744;22;20550;-88
2023/12/10 06:12:12;;;;;;;0.20;0.20;;;;;;;8.78;100.00;74710.53;6244907;23;20043;-86
2023/12/10 06:14:39;;;;;;;0.20;0.20;;;;;;;8.87;100.00;74726.22;6244593;23;20027;-87
2023/12/10 06:17:05;;;;;;;0.30;0.30;;;;;;;8.60;100.00;74694.59;6246752;23;20027;-87
2023/12/10 06:19:30;;;;;;;0.20;0.20;;;;;;;8.70;100.00;74703.78;6245642;23;20003;-88
2023/12/10 06:21:56;;;;;;;0.30;0.30;;;;;;;8.70;100.00;74703.78;6243954;23;20056;-88
2023/12/10 06:24:22;;;;;;;0.30;0.30;;;;;;;8.96;100.00;74736.38;6245506;23;19988;-89
2023/12/10 06:26:48;;;;;;;0.20;0.20;;;;;;;9.51;100.00;74800.81;6247996;23;20011;-86
2023/12/10 06:29:15;;;;;;;0.20;0.20;;;;;;;9.09;100.00;74746.94;6273961;23;20000;-87
2023/12/10 06:31:41;;;;;;;0.20;0.20;;;;;;;9.53;100.00;74803.19;6248759;23;20012;-89
2023/12/10 06:34:17;;;;;;;0.20;0.20;;;;;;;9.16;100.00;74755.31;6273285;22;20003;-90
2023/12/10 06:36:43;;;;;;;0.20;0.20;;;;;;;9.06;100.00;74742.78;6247348;23;19996;-87
2023/12/10 06:39:12;;;;;;;0.20;0.20;;;;;;;9.24;100.00;74763.66;6247477;23;20056;-91
2023/12/10 06:41:40;;;;;;;0.20;0.20;;;;;;;9.56;100.00;74804.03;6273216;23;20000;-89
2023/12/10 06:44:09;;;;;;;0.20;0.20;;;;;;;9.07;100.00;74743.97;6272952;23;20028;-87
2023/12/10 06:46:37;;;;;;;0.20;0.20;;;;;;;9.11;100.00;74751.50;6247739;23;20004;-88
2023/12/10 06:49:08;;;;;;;0.20;0.20;;;;;;;9.61;100.00;74816.09;6273596;23;19996;-88
2023/12/10 06:51:35;;;;;;;0.20;0.20;;;;;;;9.33;100.00;74769.50;6241110;23;20012;-88
2023/12/10 06:54:00;;;;;;;0.20;0.20;;;;;;;9.06;100.00;74742.78;6242721;23;20035;-88
2023/12/10 06:56:29;;;;;;;0.20;0.20;;;;;;;9.62;100.00;74808.41;6242520;23;19989;-89
2023/12/10 06:58:57;;;;;;;0.30;0.30;;;;;;;9.08;100.00;74753.44;6216292;23;20009;-89
2023/12/10 07:01:32;;;;;;;0.20;0.20;;;;;;;9.24;100.00;74764.25;6216306;23;20013;-89
2023/12/10 07:04:09;;;;;;;0.20;0.20;;;;;;;9.54;100.00;74801.66;6239083;23;19980;-88
2023/12/10 07:06:40;;;;;;;0.30;0.30;;;;;;;9.67;100.00;74815.00;6215361;23;19996;-90
2023/12/10 07:09:06;;;;;;;0.20;0.20;;;;;;;9.64;100.00;74811.41;6238036;23;20004;-89
2023/12/10 07:11:37;;;;;;;0.20;0.20;;;;;;;9.17;100.00;74761.44;6216436;23;20072;-89
2023/12/10 07:14:08;;;;;;;0.20;0.20;;;;;;;9.64;100.00;74816.94;6193122;23;19999;-90
2023/12/10 07:16:34;;;;;;;0.30;0.30;;;;;;;9.05;100.00;74742.16;6217017;23;19996;-88
2023/12/10 07:19:04;;;;;;;0.30;0.30;;;;;;;9.15;100.00;74756.84;6216938;23;20035;-88
2023/12/10 07:21:55;;;;;;;0.20;0.20;;;;;;;9.07;100.00;74744.56;6217167;23;20012;-89
2023/12/10 07:24:21;;;;;;;0.20;0.20;;;;;;;8.83;100.00;74716.50;6217359;23;20012;-89
2023/12/10 07:26:47;;;;;;;0.20;0.20;;;;;;;8.82;100.00;74718.09;6217192;23;20005;-88
2023/12/10 07:29:15;;;;;;;0.30;0.30;;;;;;;9.46;100.00;74789.91;6217715;23;19988;-88
2023/12/10 07:31:40;;;;;;;0.20;0.20;;;;;;;9.11;100.00;74743.84;6217490;23;20007;-89
2023/12/10 07:34:08;;;;;;;0.20;0.20;;;;;;;8.87;100.00;74724.03;6241324;23;20012;-89
2023/12/10 07:36:34;;;;;;;0.20;0.20;;;;;;;9.10;100.00;74750.31;6242548;23;20048;-87
2023/12/10 07:39:03;;;;;;;0.20;0.20;;;;;;;9.22;100.00;74761.28;6244237;23;20009;-88
2023/12/10 07:41:29;;;;;;;0.20;0.20;;;;;;;9.21;100.00;74760.06;6243653;23;19996;-88
2023/12/10 07:46:40;;;;;;;0.20;0.20;;;;;;;9.14;100.00;74752.31;6232927;22;20016;-89
2023/12/10 07:49:10;;;;;;;0.20;0.20;;;;;;;9.19;100.00;74763.81;6247070;23;20012;-89
2023/12/10 07:51:36;;;;;;;0.20;0.20;;;;;;;9.19;100.00;74755.53;6272934;22;20003;-90
2023/12/10 07:54:02;;;;;;;0.30;0.30;;;;;;;9.29;100.00;74769.63;6273273;23;20008;-90
2023/12/10 07:56:31;;;;;;;0.20;0.20;;;;;;;9.32;100.00;74775.97;6221803;23;19998;-89
2023/12/10 07:58:57;;;;;;;0.20;0.20;;;;;;;9.27;100.00;74770.59;6274165;22;19996;-90
2023/12/10 08:01:27;;;;;;;0.28;0.28;;;;;;;9.50;100.00;74802.38;6247867;23;20008;-90
2023/12/10 08:03:57;;;;;;;0.30;0.30;;;;;;;9.45;100.00;74792.09;6247181;22;20023;-89
2023/12/10 08:06:23;;;;;;;0.20;0.20;;;;;;;9.37;100.00;74785.28;6273609;23;20019;-89
2023/12/10 08:08:49;;;;;;;0.20;0.20;;;;;;;9.63;100.00;74809.63;6246195;23;20000;-88
2023/12/10 08:11:14;;;;;;;0.30;0.30;;;;;;;9.58;100.00;74803.66;6273151;22;20008;-90
2023/12/10 08:13:40;;;;;;;0.30;0.30;;;;;;;9.53;100.00;74803.78;6247283;22;20007;-89
2023/12/10 08:16:06;;;;;;;0.30;0.30;;;;;;;9.58;100.00;74809.16;6274345;22;20040;-90
2023/12/10 08:18:32;;;;;;;0.20;0.20;;;;;;;9.49;100.00;74793.50;6273318;22;20004;-88
2023/12/10 08:20:59;;;;;;;0.20;0.20;;;;;;;9.50;100.00;74794.09;6246041;22;20038;-89
2023/12/10 08:23:29;;;;;;;0.20;0.20;;;;;;;9.55;100.00;74806.19;6222465;23;19992;-91
2023/12/10 08:27:07;;;;;;;0.20;0.20;;;;;;;9.91;100.00;74845.81;6269695;22;20008;-89
2023/12/10 08:29:36;;;;;;;0.30;0.30;;;;;;;9.61;100.00;74813.34;6245556;23;20084;-90
2023/12/10 08:32:05;;;;;;;0.30;0.30;;;;;;;9.70;100.00;74818.00;6272555;23;19996;-91
2023/12/10 08:34:31;;;;;;;0.20;0.20;;;;;;;9.84;100.00;74840.22;6246904;23;20008;-92
2023/12/10 08:37:01;;;;;;;0.30;0.30;;;;;;;9.67;100.00;74815.00;6273274;22;19992;-89
2023/12/10 08:39:28;;;;;;;0.20;0.20;;;;;;;9.62;100.00;74808.41;6273886;22;20055;-90
2023/12/10 08:41:57;;;;;;;0.20;0.20;;;;;;;9.79;100.00;74828.72;6272731;23;19988;-90
2023/12/10 09:04:38;;;;;;;0.20;0.20;;;;;;;9.69;100.00;74822.28;6237853;22;20020;-90
2023/12/10 09:07:14;;;;;;;0.20;0.20;;;;;;;10.14;100.00;74866.56;6245427;23;19992;-91
2023/12/10 09:09:42;;;;;;;0.20;0.20;;;;;;;9.63;100.00;74810.22;6267894;22;20008;-92
2023/12/10 09:12:10;;;;;;;0.20;0.20;;;;;;;9.75;100.00;74826.72;6273083;23;20031;-91
2023/12/10 09:14:38;;;;;;;0.20;0.20;;;;;;;9.76;100.00;74822.38;6247044;22;20006;-92
2023/12/10 09:17:05;;;;;;;0.20;0.20;;;;;;;9.74;100.00;74825.50;6273586;22;20016;-91
2023/12/10 09:35:28;;;;;;;0.20;0.20;;;;;;;10.88;100.00;74956.56;6216174;22;20209;-91
2023/12/10 09:37:55;;;;;;;0.30;0.30;;;;;;;10.70;100.00;74932.28;6244261;23;20016;-86
2023/12/10 09:40:25;;;;;;;0.30;0.30;;;;;;;10.48;100.00;74909.34;6218502;23;19996;-91
2023/12/10 09:42:53;;;;;;;0.30;0.30;;;;;;;10.51;100.00;74915.13;6242471;23;20005;-91
2023/12/10 11:03:27;;;;;;;0.20;0.20;;;;;;;12.63;100.00;75161.06;6266090;22;20023;-90
2023/12/10 14:05:18;;;;;;;0.20;0.20;;;;;;;13.18;85.19;75220.13;6274661;23;20007;-94
2023/12/10 14:08:58;;;;;;;0.20;0.20;;;;;;;13.51;83.44;75270.75;6210558;23;20032;-94
2023/12/10 14:11:30;;;;;;;0.20;0.20;;;;;;;12.95;86.26;75193.78;6211601;23;20003;-92
2023/12/10 17:15:47;;;;;;;0.30;0.30;;;;;;;9.44;95.45;74788.13;6178254;23;20063;-94
2023/12/10 17:21:58;;;;;;;0.20;0.20;;;;;;;9.35;93.34;74779.56;6182536;23;20045;-91
2023/12/10 17:24:46;;;;;;;0.30;0.30;;;;;;;9.68;92.45;74810.66;6182178;23;20013;-92
2023/12/10 17:27:28;;;;;;;0.20;0.20;;;;;;;9.39;90.06;74784.31;6181405;23;20017;-92
2023/12/10 17:30:33;;;;;;;0.20;0.20;;;;;;;9.37;87.70;74779.16;6178223;23;20061;-92
2023/12/10 17:33:46;;;;;;;0.20;0.20;;;;;;;9.87;87.98;74838.28;6160934;23;20024;-91
2023/12/10 17:36:49;;;;;;;0.20;0.20;;;;;;;9.85;88.28;74838.63;6157856;23;20017;-92
2023/12/10 17:39:53;;;;;;;0.30;0.30;;;;;;;9.43;88.62;74792.47;6183907;23;20010;-93
2023/12/10 17:43:06;;;;;;;0.20;0.20;;;;;;;9.79;88.78;74823.19;6124337;23;20143;-92
2023/12/10 17:45:46;;;;;;;;;;;;;;;9.77;91.41;74823.56;6124737;23;20041;-92
2023/12/10 17:48:46;;;;;;;0.20;0.20;;;;;;;9.38;90.50;74778.22;6123338;23;19893;-92
2023/12/10 17:51:51;;;;;;;0.20;0.20;;;;;;;9.12;93.00;74752.69;6091080;23;20010;-94
2023/12/10 18:09:46;;;;;;;0.20;0.20;;;;;;;9.04;97.97;74740.38;6123375;23;20029;-93
2023/12/10 18:13:13;;;;;;;0.20;0.20;;;;;;;9.03;96.91;74739.19;6102965;23;20025;-94
2023/12/10 18:16:29;;;;;;;0.20;0.20;;;;;;;8.74;95.47;74703.03;6032354;23;20045;-94
2023/12/10 18:19:20;;;;;;;0.30;0.30;;;;;;;8.70;89.96;74703.16;6013132;23;20030;-94
2023/12/10 18:22:24;;;;;;;0.20;0.20;;;;;;;9.00;87.55;74735.59;5983142;23;20031;-92
2023/12/10 18:25:01;;;;;;;0.20;0.20;;;;;;;8.95;92.34;74730.25;6027645;23;20035;-93
2023/12/10 18:27:51;;;;;;;0.20;0.20;;;;;;;8.88;93.51;74721.88;5966782;23;19999;-93
2023/12/10 18:30:29;;;;;;;0.20;0.20;;;;;;;8.73;93.41;74709.50;6035764;23;19992;-94
2023/12/10 18:33:55;;;;;;;0.20;0.20;;;;;;;9.29;87.89;74770.22;6032489;23;20008;-94
2023/12/10 18:37:10;;;;;;;0.20;0.20;;;;;;;8.81;88.22;74714.13;5982792;23;20012;-94
2023/12/10 18:39:53;;;;;;;0.30;0.30;;;;;;;8.77;87.82;74706.59;6098961;23;20014;-93
2023/12/10 18:42:59;;;;;;;0.20;0.20;;;;;;;9.21;87.63;74762.84;6122629;23;20062;-94
2023/12/10 18:46:10;;;;;;;0.20;0.20;;;;;;;9.06;84.11;74737.25;6097158;23;20053;-93
2023/12/10 18:55:29;;;;;;;0.20;0.20;;;;;;;9.56;88.44;74796.34;6171387;23;20001;-92
2023/12/10 18:58:15;;;;;;;0.30;0.30;;;;;;;8.86;87.89;74719.50;6179289;23;20005;-91
2023/12/10 19:01:39;;;;;;;0.30;0.30;;;;;;;9.36;87.99;74780.75;6156297;23;20413;-92
2023/12/10 19:04:32;;;;;;;0.20;0.20;;;;;;;8.90;87.26;74729.81;6205323;23;20028;-92
2023/12/10 19:07:20;;;;;;;0.20;0.20;;;;;;;8.86;85.17;74720.09;6138287;23;20005;-92
2023/12/10 20:13:55;;;;;;;0.30;0.30;;;;;;;10.50;74.73;74909.00;6274497;22;20070;-92
2023/12/10 23:04:21;;;;;;;0.28;0.28;;;;;;;9.62;87.64;74808.41;6238274;22;20024;-92
2023/12/10 23:07:08;;;;;;;0.20;0.20;;;;;;;9.69;88.13;74814.00;6244632;23;20012;-91
2023/12/10 23:10:11;;;;;;;0.20;0.20;;;;;;;10.07;88.08;74861.56;6169959;23;20023;-92
2023/12/10 23:12:48;;;;;;;0.22;0.22;;;;;;;9.47;89.28;74787.75;6244216;23;20069;-92
2023/12/10 23:16:16;;;;;;;0.20;0.20;;;;;;;10.04;88.39;74857.97;6238159;23;20004;-94
2023/12/10 23:19:07;;;;;;;0.20;0.20;;;;;;;9.31;90.28;74772.59;6272351;23;20008;-95
2023/12/10 23:22:04;;;;;;;0.20;0.20;;;;;;;9.22;91.24;74766.81;6265834;23;20068;-91
2023/12/10 23:25:16;;;;;;;0.30;0.30;;;;;;;9.81;91.62;74831.13;6245746;23;19995;-93
2023/12/10 23:28:25;;;;;;;0.20;0.20;;;;;;;9.40;92.82;74780.59;6272643;23;20047;-93
2023/12/10 23:31:40;;;;;;;0.20;0.20;;;;;;;9.00;91.83;74738.38;6207344;23;20029;-93
2023/12/10 23:34:38;;;;;;;0.20;0.20;;;;;;;9.06;93.34;74742.78;6181962;23;20005;-93
2023/12/10 23:38:10;;;;;;;0.30;0.30;;;;;;;9.13;93.18;74751.13;6128593;23;20006;-93
2023/12/10 23:41:23;;;;;;;0.20;0.20;;;;;;;9.87;87.94;74837.69;6151286;23;20014;-93
2023/12/10 23:44:41;;;;;;;0.20;0.20;;;;;;;9.40;93.02;74788.88;6150622;23;20040;-93
2023/12/10 23:47:43;;;;;;;0.20;0.20;;;;;;;9.67;93.76;74814.41;6103894;23;20017;-93
2023/12/10 23:50:58;;;;;;;0.20;0.20;;;;;;;9.05;93.65;74741.56;6158648;23;20005;-93
2023/12/10 23:57:18;;;;;;;0.30;0.30;;;;;;;9.00;92.98;74732.84;6181233;23;20016;-92
